createdAt,value
2019-04-05T00:01:44.066Z,16.30
2019-04-05T00:04:16.317Z,16.90
2019-04-05T00:06:48.324Z,17.37
2019-04-05T00:09:20.314Z,17.70
2019-04-05T00:11:52.447Z,16.60
2019-04-05T00:14:24.403Z,17.70
2019-04-05T00:16:56.373Z,16.40
2019-04-05T00:19:28.334Z,17.37
2019-04-05T00:22:00.275Z,17.93
2019-04-05T00:24:32.288Z,16.60
2019-04-05T00:27:04.316Z,17.30
2019-04-05T00:29:36.345Z,17.27
2019-04-05T00:32:08.312Z,17.43
2019-04-05T00:34:40.561Z,17.53
2019-04-05T00:37:12.827Z,16.87
2019-04-05T00:39:44.944Z,16.80
2019-04-05T00:42:17.214Z,17.20
2019-04-05T00:44:49.627Z,17.70
2019-04-05T00:51:41.420Z,16.53
2019-04-05T00:54:13.480Z,17.20
2019-04-05T00:56:45.499Z,17.43
2019-04-05T00:59:17.472Z,16.97
2019-04-05T01:01:49.897Z,17.30
2019-04-05T01:04:21.909Z,18.17
2019-04-05T01:06:53.963Z,17.13
2019-04-05T01:09:26.203Z,17.93
2019-04-05T01:11:58.188Z,17.70
2019-04-05T01:14:31.059Z,18.77
2019-04-05T01:17:03.474Z,17.83
2019-04-05T01:19:37.955Z,18.37
2019-04-05T01:22:13.766Z,17.47
2019-04-05T01:24:46.364Z,19.03
2019-04-05T01:27:19.285Z,18.73
2019-04-05T01:29:51.238Z,18.57
2019-04-05T01:32:23.228Z,18.30
2019-04-05T01:34:55.444Z,17.73
2019-04-05T01:37:27.925Z,18.50
2019-04-05T01:40:00.486Z,18.60
2019-04-05T01:42:32.423Z,18.40
2019-04-05T01:45:06.957Z,18.93
2019-04-05T01:47:38.988Z,18.47
2019-04-05T01:50:11.651Z,18.63
2019-04-05T01:52:44.255Z,18.53
2019-04-05T01:55:16.294Z,18.10
2019-04-05T01:57:48.253Z,19.23
2019-04-05T02:00:21.248Z,18.87
2019-04-05T02:02:53.186Z,18.57
2019-04-05T02:05:25.339Z,18.93
2019-04-05T02:07:57.596Z,19.60
2019-04-05T02:10:30.200Z,20.40
2019-04-05T02:13:02.376Z,19.30
2019-04-05T02:15:37.001Z,19.23
2019-04-05T02:18:09.003Z,19.17
2019-04-05T02:20:41.059Z,18.90
2019-04-05T02:23:13.076Z,19.50
2019-04-05T02:25:45.063Z,19.60
2019-04-05T02:28:17.120Z,19.90
2019-04-05T02:30:49.115Z,19.97
2019-04-05T02:33:21.130Z,21.60
2019-04-05T02:35:53.081Z,19.20
2019-04-05T02:38:25.128Z,20.17
2019-04-05T02:40:59.767Z,20.30
2019-04-05T02:43:35.761Z,19.27
2019-04-05T02:46:22.826Z,20.27
2019-04-05T02:48:46.064Z,20.70
2019-04-05T02:51:23.184Z,20.17
2019-04-05T02:53:58.459Z,19.80
2019-04-05T02:56:31.855Z,19.67
2019-04-05T02:59:05.404Z,19.67
2019-04-05T03:01:37.705Z,20.57
2019-04-05T03:04:10.176Z,21.33
2019-04-05T03:06:42.468Z,21.03
2019-04-05T03:09:14.931Z,21.00
2019-04-05T03:11:47.692Z,20.17
2019-04-05T03:14:21.030Z,20.93
2019-04-05T03:16:55.884Z,22.10
2019-04-05T03:19:31.887Z,19.67
2019-04-05T03:22:08.140Z,22.07
2019-04-05T03:24:44.174Z,20.87
2019-04-05T03:27:21.078Z,21.67
2019-04-05T03:29:54.148Z,21.07
2019-04-05T03:32:26.935Z,20.83
2019-04-05T03:34:59.392Z,21.97
2019-04-05T03:37:31.784Z,20.63
2019-04-05T03:40:06.032Z,21.57
2019-04-05T03:42:38.541Z,22.57
2019-04-05T03:45:10.968Z,20.53
2019-04-05T03:47:43.329Z,21.77
2019-04-05T03:50:15.596Z,20.53
2019-04-05T03:52:47.692Z,20.77
2019-04-05T03:55:19.663Z,20.83
2019-04-05T03:57:51.674Z,21.93
2019-04-05T04:00:23.693Z,21.83
2019-04-05T04:02:55.781Z,23.17
2019-04-05T04:05:27.988Z,21.43
2019-04-05T04:08:00.164Z,21.70
2019-04-05T04:10:32.280Z,22.67
2019-04-05T04:13:04.977Z,22.03
2019-04-05T04:15:37.067Z,22.30
2019-04-05T04:18:09.484Z,21.83
2019-04-05T04:20:48.924Z,21.60
2019-04-05T04:23:25.430Z,22.57
2019-04-05T04:25:57.993Z,22.10
2019-04-05T04:28:31.326Z,21.97
2019-04-05T04:31:04.059Z,22.43
2019-04-05T04:33:36.791Z,22.57
2019-04-05T04:36:08.606Z,23.37
2019-04-05T04:38:41.002Z,23.27
2019-04-05T04:41:13.458Z,23.10
2019-04-05T04:43:46.135Z,22.20
2019-04-05T04:46:18.807Z,22.20
2019-04-05T04:48:50.773Z,23.33
2019-04-05T04:51:23.331Z,23.13
2019-04-05T04:53:55.693Z,22.93
2019-04-05T04:56:28.034Z,23.87
2019-04-05T04:59:00.358Z,25.33
2019-04-05T05:01:32.334Z,23.07
2019-04-05T05:04:04.631Z,22.97
2019-04-05T05:06:36.920Z,22.83
2019-04-05T05:09:09.083Z,23.07
2019-04-05T05:11:45.406Z,23.40
2019-04-05T05:14:18.033Z,24.10
2019-04-05T05:16:50.285Z,23.77
2019-04-05T05:19:22.471Z,22.13
2019-04-05T05:21:54.692Z,23.60
2019-04-05T05:24:27.803Z,23.20
2019-04-05T05:26:59.794Z,23.80
2019-04-05T05:29:32.075Z,23.83
2019-04-05T05:32:04.679Z,22.87
2019-04-05T05:34:36.985Z,24.87
2019-04-05T05:37:09.158Z,23.40
2019-04-05T05:39:41.349Z,24.10
2019-04-05T05:42:13.587Z,24.10
2019-04-05T05:44:45.527Z,23.87
2019-04-05T05:47:17.487Z,24.60
2019-04-05T05:49:49.473Z,24.33
2019-04-05T05:52:21.787Z,23.40
2019-04-05T05:54:53.743Z,24.97
2019-04-05T05:57:25.830Z,24.37
2019-04-05T06:00:00.219Z,24.53
2019-04-05T06:02:31.613Z,24.27
2019-04-05T06:05:03.733Z,25.43
2019-04-05T06:07:36.271Z,23.97
2019-04-05T06:10:09.137Z,24.67
2019-04-05T06:12:41.123Z,24.57
2019-04-05T06:15:13.542Z,23.93
2019-04-05T06:17:45.509Z,24.13
2019-04-05T06:20:18.425Z,24.57
2019-04-05T06:22:50.406Z,23.63
2019-04-05T06:25:22.380Z,24.93
2019-04-05T06:27:54.667Z,24.07
2019-04-05T06:30:28.767Z,24.63
2019-04-05T06:33:00.564Z,24.17
2019-04-05T06:35:32.583Z,23.30
2019-04-05T06:38:04.680Z,24.03
2019-04-05T06:40:41.194Z,24.47
2019-04-05T06:43:11.095Z,25.70
2019-04-05T06:45:43.329Z,24.23
2019-04-05T06:48:19.448Z,24.23
2019-04-05T06:50:49.560Z,23.37
2019-04-05T06:53:21.884Z,26.33
2019-04-05T06:55:53.895Z,23.57
2019-04-05T06:58:29.092Z,25.13
2019-04-05T07:01:00.648Z,25.93
2019-04-05T07:03:32.828Z,24.30
2019-04-05T07:06:04.772Z,24.20
2019-04-05T07:08:36.749Z,26.87
2019-04-05T07:11:08.705Z,24.03
2019-04-05T07:13:40.660Z,25.63
2019-04-05T07:16:12.635Z,25.47
2019-04-05T07:18:44.587Z,25.97
2019-04-05T07:21:17.462Z,25.20
2019-04-05T07:23:49.490Z,25.70
2019-04-05T07:26:21.594Z,23.30
2019-04-05T07:28:53.851Z,25.33
2019-04-05T07:31:25.800Z,24.97
2019-04-05T07:33:58.026Z,25.30
2019-04-05T07:36:29.972Z,24.10
2019-04-05T07:39:02.211Z,24.10
2019-04-05T07:41:34.224Z,24.57
2019-04-05T07:44:06.280Z,24.10
2019-04-05T07:46:38.217Z,24.60
2019-04-05T07:49:10.229Z,24.37
2019-04-05T07:51:42.174Z,25.00
2019-04-05T07:54:14.131Z,25.30
2019-04-05T07:56:46.637Z,24.67
2019-04-05T07:59:20.899Z,25.00
2019-04-05T08:01:52.580Z,25.43
2019-04-05T08:04:24.529Z,24.50
2019-04-05T08:07:01.359Z,25.63
2019-04-05T08:09:35.562Z,23.60
2019-04-05T08:12:08.154Z,24.90
2019-04-05T08:14:40.974Z,24.47
2019-04-05T08:17:12.968Z,24.43
2019-04-05T08:19:45.092Z,26.10
2019-04-05T08:22:17.307Z,24.50
2019-04-05T08:24:49.445Z,24.33
2019-04-05T08:27:21.447Z,24.97
2019-04-05T08:29:53.986Z,25.50
2019-04-05T08:32:25.966Z,24.33
2019-04-05T08:34:57.930Z,25.53
2019-04-05T08:37:29.951Z,24.00
2019-04-05T08:40:01.911Z,25.40
2019-04-05T08:42:34.119Z,25.73
2019-04-05T08:45:08.991Z,24.07
2019-04-05T08:47:40.945Z,25.60
2019-04-05T08:50:13.227Z,25.37
2019-04-05T08:52:45.428Z,25.27
2019-04-05T08:55:17.405Z,24.87
2019-04-05T08:57:49.934Z,24.70
2019-04-05T09:00:22.622Z,23.87
2019-04-05T09:02:54.668Z,24.50
2019-04-05T09:05:26.687Z,25.17
2019-04-05T09:07:58.644Z,23.90
2019-04-05T09:10:30.586Z,24.50
2019-04-05T09:13:02.608Z,24.53
2019-04-05T09:15:34.565Z,24.93
2019-04-05T09:18:07.498Z,23.73
2019-04-05T09:20:39.453Z,24.80
2019-04-05T09:23:11.422Z,24.87
2019-04-05T09:25:43.378Z,24.53
2019-04-05T09:28:15.373Z,23.77
2019-04-05T09:30:47.319Z,24.43
2019-04-05T09:33:19.380Z,24.00
2019-04-05T09:35:51.407Z,25.63
2019-04-05T09:38:23.815Z,25.53
2019-04-05T09:40:55.795Z,26.00
2019-04-05T09:43:28.013Z,25.80
2019-04-05T09:46:00.061Z,25.17
2019-04-05T09:48:32.806Z,23.93
2019-04-05T09:51:07.104Z,23.30
2019-04-05T09:53:39.090Z,22.80
2019-04-05T09:56:11.223Z,23.43
2019-04-05T09:58:43.165Z,24.33
2019-04-05T10:01:15.401Z,24.03
2019-04-05T10:03:47.422Z,23.83
2019-04-05T10:06:19.453Z,24.63
2019-04-05T10:08:51.409Z,24.53
2019-04-05T10:11:23.535Z,23.47
2019-04-05T10:13:55.489Z,25.43
2019-04-05T10:16:27.496Z,23.77
2019-04-05T10:18:59.749Z,23.77
2019-04-05T10:21:31.734Z,24.77
2019-04-05T10:24:04.015Z,24.03
2019-04-05T10:26:35.969Z,23.83
2019-04-05T10:29:07.992Z,24.40
2019-04-05T10:31:39.967Z,25.67
2019-04-05T10:34:11.919Z,23.50
2019-04-05T10:36:43.895Z,26.07
2019-04-05T10:39:15.849Z,25.07
2019-04-05T10:41:47.812Z,25.57
2019-04-05T10:44:19.780Z,24.50
2019-04-05T10:46:51.811Z,23.03
2019-04-05T10:49:23.850Z,24.23
2019-04-05T10:51:55.896Z,23.60
2019-04-05T10:54:27.844Z,22.87
2019-04-05T10:56:59.796Z,23.03
2019-04-05T10:59:31.827Z,22.77
2019-04-05T11:02:03.866Z,22.50
2019-04-05T11:04:35.822Z,22.93
2019-04-05T11:07:07.778Z,23.20
2019-04-05T11:09:39.750Z,23.10
2019-04-05T11:12:12.362Z,24.97
2019-04-05T11:14:45.046Z,23.63
2019-04-05T11:17:16.994Z,24.27
2019-04-05T11:19:49.052Z,24.07
2019-04-05T11:22:21.200Z,24.40
2019-04-05T11:24:53.216Z,21.53
2019-04-05T11:27:25.228Z,20.50
2019-04-05T11:29:57.908Z,20.63
2019-04-05T11:32:30.816Z,19.93
2019-04-05T11:35:02.843Z,21.67
2019-04-05T11:37:35.397Z,20.93
2019-04-05T11:40:10.354Z,21.47
2019-04-05T11:42:43.755Z,20.80
2019-04-05T11:45:16.072Z,21.43
2019-04-05T11:47:49.008Z,22.00
2019-04-05T11:50:33.557Z,20.87
2019-04-05T11:52:54.938Z,21.03
2019-04-05T11:55:27.177Z,20.33
2019-04-05T11:58:01.967Z,20.33
2019-04-05T12:00:38.527Z,20.10
2019-04-05T12:03:18.488Z,20.83
2019-04-05T12:05:50.709Z,19.70
2019-04-05T12:08:24.110Z,21.73
2019-04-05T12:10:56.086Z,21.13
2019-04-05T12:13:28.103Z,21.07
2019-04-05T12:16:00.357Z,21.10
2019-04-05T12:18:34.783Z,21.17
2019-04-05T12:21:07.007Z,21.50
2019-04-05T12:23:39.604Z,21.70
2019-04-05T12:26:15.863Z,22.13
2019-04-05T12:28:48.419Z,27.47
2019-04-05T12:31:21.057Z,28.00
2019-04-05T12:33:53.035Z,23.40
2019-04-05T12:36:25.281Z,23.40
2019-04-05T12:38:57.227Z,21.80
2019-04-05T12:41:29.200Z,22.17
2019-04-05T12:44:01.174Z,21.67
2019-04-05T12:46:33.132Z,22.57
2019-04-05T12:49:05.086Z,23.97
2019-04-05T12:51:37.045Z,23.37
2019-04-05T12:54:09.259Z,23.67
2019-04-05T12:56:41.332Z,23.70
2019-04-05T12:59:13.292Z,22.87
2019-04-05T13:01:45.660Z,21.97
2019-04-05T13:04:20.752Z,23.43
2019-04-05T13:06:53.005Z,22.47
2019-04-05T13:09:26.036Z,23.60
2019-04-05T13:11:58.800Z,23.93
2019-04-05T13:14:30.794Z,24.40
2019-04-05T13:17:02.874Z,23.20
2019-04-05T13:19:35.069Z,22.87
2019-04-05T13:22:07.106Z,22.83
2019-04-05T13:24:40.260Z,21.83
2019-04-05T13:27:12.841Z,20.53
2019-04-05T13:29:45.122Z,19.77
2019-04-05T13:32:19.358Z,18.80
2019-04-05T13:34:51.135Z,18.03
2019-04-05T13:37:23.405Z,18.73
2019-04-05T13:39:55.346Z,18.73
2019-04-05T13:42:31.106Z,18.97
2019-04-05T13:45:01.329Z,19.33
2019-04-05T13:47:33.278Z,19.87
2019-04-05T13:50:11.027Z,20.63
2019-04-05T13:52:42.120Z,20.33
2019-04-05T13:55:14.524Z,20.47
2019-04-05T13:57:46.549Z,19.77
2019-04-05T14:00:19.256Z,19.30
2019-04-05T14:02:51.453Z,18.57
2019-04-05T14:05:23.427Z,20.20
2019-04-05T14:08:09.112Z,20.97
2019-04-05T14:10:29.022Z,20.90
2019-04-05T14:13:01.130Z,21.77
2019-04-05T14:15:33.151Z,22.00
2019-04-05T14:18:05.107Z,20.13
2019-04-05T14:20:37.055Z,21.43
2019-04-05T14:23:10.154Z,20.93
2019-04-05T14:25:42.093Z,21.30
2019-04-05T14:28:14.326Z,21.73
2019-04-05T14:30:46.629Z,21.80
2019-04-05T14:33:18.846Z,22.00
2019-04-05T14:35:52.528Z,24.23
2019-04-05T14:38:24.572Z,23.03
2019-04-05T14:40:56.545Z,24.77
2019-04-05T14:43:28.495Z,81.73
2019-04-05T14:46:02.774Z,24.90
2019-04-05T14:48:34.114Z,23.67
2019-04-05T14:51:06.160Z,22.27
2019-04-05T14:53:38.425Z,23.53
2019-04-05T14:56:10.395Z,23.20
2019-04-05T14:58:42.343Z,22.93
2019-04-05T15:01:15.509Z,23.27
2019-04-05T15:03:48.207Z,23.00
2019-04-05T15:06:20.646Z,23.20
2019-04-05T15:08:52.741Z,23.17
2019-04-05T15:11:28.727Z,23.33
2019-04-05T15:13:58.431Z,23.63
2019-04-05T15:16:30.477Z,23.47
2019-04-05T15:19:02.428Z,22.80
2019-04-05T15:21:34.834Z,22.87
2019-04-05T15:24:08.896Z,22.43
2019-04-05T15:26:40.959Z,23.60
2019-04-05T15:29:13.317Z,23.27
2019-04-05T15:31:45.303Z,23.70
2019-04-05T15:34:17.355Z,21.77
2019-04-05T15:36:49.311Z,22.40
2019-04-05T15:39:21.277Z,22.63
2019-04-05T15:41:53.247Z,21.60
2019-04-05T15:44:25.485Z,21.57
2019-04-05T15:46:57.706Z,23.27
2019-04-05T15:49:29.679Z,22.97
2019-04-05T15:52:01.646Z,22.33
2019-04-05T15:54:34.668Z,22.43
2019-04-05T15:57:06.666Z,23.20
2019-04-05T15:59:38.629Z,23.27
2019-04-05T16:02:10.593Z,23.27
2019-04-05T16:04:42.573Z,23.90
2019-04-05T16:07:14.828Z,23.30
2019-04-05T16:09:46.773Z,23.27
2019-04-05T16:12:21.681Z,24.17
2019-04-05T16:14:53.710Z,23.83
2019-04-05T16:17:25.732Z,22.27
2019-04-05T16:19:58.108Z,24.57
2019-04-05T16:22:31.457Z,24.63
2019-04-05T16:25:04.357Z,23.43
2019-04-05T16:27:36.345Z,25.07
2019-04-05T16:30:09.490Z,23.27
2019-04-05T16:32:41.507Z,23.97
2019-04-05T16:35:14.782Z,23.80
2019-04-05T16:37:46.905Z,25.00
2019-04-05T16:40:19.442Z,23.57
2019-04-05T16:43:01.853Z,25.23
2019-04-05T16:45:25.293Z,22.30
2019-04-05T16:47:57.514Z,23.33
2019-04-05T16:50:29.494Z,23.43
2019-04-05T16:53:01.427Z,25.23
2019-04-05T16:55:33.969Z,24.13
2019-04-05T16:58:05.928Z,24.40
2019-04-05T17:00:37.885Z,26.00
2019-04-05T17:03:09.869Z,26.67
2019-04-05T17:05:42.089Z,26.60
2019-04-05T17:08:14.305Z,28.27
2019-04-05T17:10:46.355Z,26.83
2019-04-05T17:13:18.324Z,28.57
2019-04-05T17:15:50.309Z,28.67
2019-04-05T17:18:22.275Z,27.53
2019-04-05T17:20:54.251Z,26.83
2019-04-05T17:23:26.225Z,28.50
2019-04-05T17:25:58.179Z,29.73
2019-04-05T17:28:30.136Z,31.90
2019-04-05T17:31:02.120Z,31.40
2019-04-05T17:33:34.330Z,29.33
2019-04-05T17:36:06.297Z,29.70
2019-04-05T17:38:41.239Z,27.03
2019-04-05T17:41:13.203Z,27.13
2019-04-05T17:43:46.138Z,26.77
2019-04-05T17:46:18.115Z,28.33
2019-04-05T17:48:52.004Z,29.07
2019-04-05T17:51:24.052Z,28.43
2019-04-05T17:53:56.076Z,28.10
2019-04-05T17:56:28.387Z,30.17
2019-04-05T17:59:01.292Z,31.17
2019-04-05T18:01:33.399Z,28.97
2019-04-05T18:04:05.349Z,29.73
2019-04-05T18:06:37.307Z,27.73
2019-04-05T18:09:09.992Z,29.57
2019-04-05T18:11:42.196Z,29.93
2019-04-05T18:14:14.347Z,29.47
2019-04-05T18:16:46.309Z,29.03
2019-04-05T18:19:18.301Z,28.40
2019-04-05T18:21:50.337Z,33.15
2019-04-05T18:24:22.467Z,41.40
2019-04-05T18:26:54.450Z,43.67
2019-04-05T18:29:26.485Z,41.33
2019-04-05T18:31:58.460Z,38.90
2019-04-05T18:34:30.424Z,39.33
2019-04-05T18:37:02.431Z,39.27
2019-04-05T18:39:34.895Z,39.07
2019-04-05T18:42:06.934Z,35.37
2019-04-05T18:44:38.903Z,32.63
2019-04-05T18:47:11.162Z,30.43
2019-04-05T18:49:43.113Z,30.30
2019-04-05T18:52:15.072Z,30.43
2019-04-05T18:54:47.208Z,29.47
2019-04-05T18:57:19.458Z,30.20
2019-04-05T18:59:52.405Z,32.40
2019-04-05T19:02:24.369Z,31.00
2019-04-05T19:04:56.347Z,31.00
2019-04-05T19:07:28.380Z,29.93
2019-04-05T19:10:00.347Z,36.80
2019-04-05T19:12:33.291Z,33.27
2019-04-05T19:15:08.954Z,35.20
2019-04-05T19:17:40.938Z,36.57
2019-04-05T19:20:13.137Z,37.90
2019-04-05T19:22:45.096Z,33.77
2019-04-05T19:25:17.129Z,35.63
2019-04-05T19:27:49.682Z,31.93
2019-04-05T19:48:35.078Z,36.10
2019-04-05T19:50:51.561Z,36.27
2019-04-05T19:53:23.534Z,36.00
2019-04-05T19:55:55.748Z,34.20
2019-04-05T19:58:27.726Z,34.53
2019-04-05T20:00:59.760Z,34.63
2019-04-05T20:03:31.823Z,34.90
2019-04-05T20:06:04.024Z,36.60
2019-04-05T20:08:36.260Z,35.50
2019-04-05T20:11:08.456Z,36.30
2019-04-05T20:13:40.471Z,42.03
2019-04-05T20:16:12.446Z,41.97
2019-04-05T20:18:44.476Z,47.37
2019-04-05T20:21:16.713Z,48.77
2019-04-05T20:23:49.294Z,51.17
2019-04-05T20:26:21.279Z,52.80
2019-04-05T20:28:53.327Z,53.67
2019-04-05T20:31:25.274Z,58.10
2019-04-05T20:33:57.318Z,57.50
2019-04-05T20:36:29.274Z,58.00
2019-04-05T20:39:01.576Z,58.13
2019-04-05T20:41:34.675Z,59.47
2019-04-05T20:44:06.646Z,56.77
2019-04-05T20:46:38.752Z,59.70
2019-04-05T20:49:11.983Z,60.03
2019-04-05T20:51:44.291Z,60.50
2019-04-05T20:54:24.262Z,62.63
2019-04-05T20:56:50.066Z,60.70
2019-04-05T20:59:22.048Z,62.27
2019-04-05T21:01:54.304Z,61.53
2019-04-05T21:04:26.263Z,59.90
2019-04-05T21:06:58.325Z,60.73
2019-04-05T21:09:30.428Z,60.80
2019-04-05T21:12:02.420Z,58.33
2019-04-05T21:14:34.439Z,60.57
2019-04-05T21:17:07.028Z,61.23
2019-04-05T21:19:38.989Z,61.57
2019-04-05T21:22:11.017Z,59.90
2019-04-05T21:24:42.994Z,62.30
2019-04-05T21:27:14.963Z,61.13
2019-04-05T21:29:46.931Z,60.80
2019-04-05T21:32:18.906Z,62.57
2019-04-05T21:34:51.016Z,63.37
2019-04-05T21:37:22.955Z,62.73
2019-04-05T21:39:54.969Z,59.73
2019-04-05T21:42:26.978Z,59.63
2019-04-05T21:44:58.934Z,60.23
2019-04-05T21:47:31.001Z,56.70
2019-04-05T21:50:03.262Z,57.97
2019-04-05T21:52:35.308Z,59.00
2019-04-05T21:55:10.376Z,57.77
2019-04-05T21:57:42.400Z,58.03
2019-04-05T22:00:28.118Z,56.47
2019-04-05T22:03:00.208Z,56.33
2019-04-05T22:05:32.234Z,55.93
2019-04-05T22:08:04.451Z,53.33
2019-04-05T22:10:36.408Z,48.97
2019-04-05T22:13:10.065Z,46.67
2019-04-05T22:15:42.063Z,48.47
2019-04-05T22:18:14.260Z,48.47
2019-04-05T22:20:46.237Z,47.93
2019-04-05T22:23:18.246Z,46.80
2019-04-05T22:25:50.321Z,46.70
2019-04-05T22:28:22.243Z,43.73
2019-04-05T22:30:54.467Z,47.40
2019-04-05T22:33:26.473Z,49.33
2019-04-05T22:35:58.430Z,45.60
2019-04-05T22:38:30.445Z,44.80
2019-04-05T22:41:02.769Z,42.77
2019-04-05T22:43:34.771Z,42.20
2019-04-05T22:46:06.859Z,38.37
2019-04-05T22:48:38.811Z,38.23
2019-04-05T22:51:11.096Z,40.20
2019-04-05T22:53:43.296Z,39.73
2019-04-05T22:56:15.394Z,42.07
2019-04-05T22:58:47.608Z,41.33
2019-04-05T23:01:19.570Z,41.77
2019-04-05T23:03:51.650Z,52.67
2019-04-05T23:06:23.998Z,57.17
2019-04-05T23:08:55.992Z,55.00
2019-04-05T23:11:28.037Z,49.13
2019-04-05T23:14:00.027Z,44.90
2019-04-05T23:16:32.035Z,44.17
2019-04-05T23:19:04.052Z,42.53
2019-04-05T23:21:35.983Z,39.33
2019-04-05T23:24:07.994Z,38.60
2019-04-05T23:26:40.200Z,38.60
2019-04-05T23:29:12.226Z,38.87
2019-04-05T23:31:44.162Z,38.50
2019-04-05T23:34:16.453Z,39.00
2019-04-05T23:36:48.457Z,39.20
2019-04-05T23:39:20.454Z,39.60
2019-04-05T23:41:52.383Z,39.83
2019-04-05T23:44:24.689Z,40.57
2019-04-05T23:46:56.702Z,40.03
2019-04-05T23:49:28.651Z,42.10
2019-04-05T23:52:00.669Z,46.10
2019-04-05T23:54:32.652Z,45.37
2019-04-05T23:57:04.664Z,46.77
2019-04-05T23:59:36.656Z,47.33
